Terminal Aerodrome Forecast
Issued by NWS

Home | Current Version | Previous Version | Text Only | Print | Product List | Glossary On
Versions: 1 2 3 4 5 6 7 8 9 10 11 12 13 14 15
956
FTUS42 KTAE 011122
TAFABY
TAF
KABY 011122Z 0112/0212 00000KT P6SM FEW250
     FM011300 20009KT P6SM SCT030 SCT250
     FM012000 20010KT P6SM VCTS SCT040CB SCT250
     FM020000 19004KT P6SM SCT250=

USA.gov is the U.S. government's official web portal to all federal, state and local government web resources and services.